Time;durP1;ratioP1;P1;durP2;ratioP2;P2;SDS_P1;SDS_P2;PMS_P1;PMS_P2;Temp;Humidity;BMP_temperature;BMP_pressure;BME280_temperature;BME280_humidity;BME280_pressure;Samples;Min_cycle;Max_cycle;Signal;HPM_P1;HPM_P2
2021/04/06 00:01:34;;;;;;;2.53;1.77;;;;;;;-0.85;66.02;96198.31;5092690;28;20387;-77
2021/04/06 00:04:05;;;;;;;4.65;2.35;;;;;;;-0.87;65.91;96197.66;5093479;28;20043;-77
2021/04/06 00:06:34;;;;;;;2.97;2.03;;;;;;;-0.89;65.75;96202.16;5092645;28;20028;-77
2021/04/06 00:09:04;;;;;;;3.40;2.13;;;;;;;-0.92;65.91;96197.31;5092759;28;20024;-77
2021/04/06 00:11:30;;;;;;;3.88;2.05;;;;;;;-0.97;65.86;96202.91;5093026;28;20043;-77
2021/04/06 00:13:57;;;;;;;3.15;2.55;;;;;;;-1.00;66.04;96198.06;5094952;28;20479;-77
2021/04/06 00:16:24;;;;;;;3.30;1.80;;;;;;;-1.04;66.11;96205.28;5096495;28;20404;-77
2021/04/06 00:18:53;;;;;;;7.85;2.22;;;;;;;-1.09;66.07;96197.22;5096232;28;20048;-77
2021/04/06 00:21:21;;;;;;;2.40;2.10;;;;;;;-1.11;65.73;96185.47;5095579;28;20056;-77
2021/04/06 00:23:48;;;;;;;3.78;1.83;;;;;;;-1.16;66.11;96196.19;5096603;28;20040;-77
2021/04/06 00:26:15;;;;;;;6.65;2.20;;;;;;;-1.17;66.04;96202.31;5095542;28;20499;-77
2021/04/06 00:28:43;;;;;;;3.00;2.15;;;;;;;-1.18;66.37;96194.72;5096294;28;20132;-77
2021/04/06 00:31:11;;;;;;;4.43;2.28;;;;;;;-1.21;65.86;96198.41;5096371;28;20028;-77
2021/04/06 00:33:43;;;;;;;5.43;2.20;;;;;;;-1.25;65.89;96189.38;5095509;28;20044;-77
2021/04/06 00:36:10;;;;;;;8.50;2.30;;;;;;;-1.30;66.08;96189.84;5095907;28;20031;-77
2021/04/06 00:38:38;;;;;;;10.65;2.35;;;;;;;-1.34;66.01;96182.56;5096063;28;20423;-77
2021/04/06 00:41:14;;;;;;;3.30;2.00;;;;;;;-1.38;65.57;96184.63;5094700;28;20048;-77
2021/04/06 00:43:42;;;;;;;3.47;2.00;;;;;;;-1.42;66.05;96185.88;5078074;28;20365;-77
2021/04/06 00:46:28;;;;;;;3.95;2.25;;;;;;;-1.47;66.13;96188.09;5095666;28;20036;-77
2021/04/06 00:48:56;;;;;;;3.95;2.20;;;;;;;-1.48;66.05;96191.63;5096392;28;20043;-77
2021/04/06 00:51:23;;;;;;;8.65;2.75;;;;;;;-1.49;66.04;96195.13;5094920;28;20040;-77
2021/04/06 00:53:53;;;;;;;3.60;2.22;;;;;;;-1.53;66.21;96199.78;5095392;28;20048;-77
2021/04/06 00:56:25;;;;;;;3.58;2.15;;;;;;;-1.54;66.24;96189.66;5076633;28;20051;-77
2021/04/06 00:58:53;;;;;;;3.55;1.98;;;;;;;-1.56;66.17;96200.06;5095723;28;20040;-77
2021/04/06 01:01:46;;;;;;;2.92;2.10;;;;;;;-1.56;66.36;96199.28;5095851;28;20036;-77
2021/04/06 01:04:16;;;;;;;3.47;2.00;;;;;;;-1.62;66.00;96192.94;5095618;28;20036;-77
2021/04/06 01:07:08;;;;;;;3.05;1.90;;;;;;;-1.63;66.05;96204.19;5095287;28;20389;-77
2021/04/06 01:09:52;;;;;;;2.53;1.90;;;;;;;-1.66;66.10;96202.75;5095772;28;20047;-77
2021/04/06 01:12:22;;;;;;;3.65;2.10;;;;;;;-1.68;66.01;96209.78;5094823;28;20055;-77
2021/04/06 01:14:50;;;;;;;3.45;1.73;;;;;;;-1.68;66.19;96216.66;5095255;28;20042;-77
2021/04/06 01:17:37;;;;;;;2.70;1.65;;;;;;;-1.69;65.84;96213.31;5095252;28;20036;-77
2021/04/06 01:20:16;;;;;;;4.53;1.92;;;;;;;-1.70;66.25;96218.59;5081798;28;20059;-77
2021/04/06 01:22:44;;;;;;;4.65;1.80;;;;;;;-1.70;65.73;96218.59;5095177;28;20404;-78
2021/04/06 01:25:18;;;;;;;2.25;1.48;;;;;;;-1.70;65.64;96214.28;5094100;28;20480;-77
2021/04/06 01:27:45;;;;;;;2.08;1.88;;;;;;;-1.70;65.80;96206.56;5094945;28;20028;-77
2021/04/06 01:30:12;;;;;;;3.33;2.17;;;;;;;-1.72;65.53;96208.47;5077308;28;20044;-77
2021/04/06 01:32:39;;;;;;;2.33;1.63;;;;;;;-1.84;65.38;96200.16;5093963;28;20052;-77
2021/04/06 01:35:08;;;;;;;3.03;1.67;;;;;;;-1.93;65.55;96193.34;5095071;28;20074;-77
2021/04/06 01:37:35;;;;;;;3.13;1.73;;;;;;;-1.94;65.83;96201.19;5094561;28;20392;-77
2021/04/06 01:40:03;;;;;;;3.70;1.83;;;;;;;-1.94;65.84;96199.41;5095198;28;20036;-77
2021/04/06 01:42:35;;;;;;;4.05;1.88;;;;;;;-1.98;65.84;96208.38;5093217;28;20055;-77
2021/04/06 01:45:06;;;;;;;2.30;1.80;;;;;;;-2.02;65.75;96196.75;5094816;28;20419;-77
2021/04/06 01:47:33;;;;;;;3.75;2.25;;;;;;;-2.05;65.75;96197.06;5076939;28;20047;-77
2021/04/06 01:50:00;;;;;;;2.90;1.70;;;;;;;-2.08;66.03;96198.16;5094368;28;20036;-77
2021/04/06 01:52:26;;;;;;;3.95;1.90;;;;;;;-2.11;65.73;96193.31;5094583;28;20044;-77
2021/04/06 01:54:57;;;;;;;2.38;1.60;;;;;;;-2.11;65.73;96193.31;5094409;28;20047;-77
2021/04/06 01:57:36;;;;;;;2.85;1.60;;;;;;;-2.13;65.84;96195.22;5094974;28;20488;-77
2021/04/06 02:03:06;;;;;;;4.63;2.10;;;;;;;-2.21;65.80;96184.84;5046923;28;20488;-77
2021/04/06 02:05:32;;;;;;;2.85;1.80;;;;;;;-2.26;65.78;96193.00;5094629;28;20516;-77
2021/04/06 02:08:05;;;;;;;2.38;1.67;;;;;;;-2.31;65.87;96186.66;5094162;28;20047;-77
2021/04/06 02:10:33;;;;;;;3.37;1.70;;;;;;;-2.31;65.71;96184.91;5093289;28;20043;-77
2021/04/06 02:13:13;;;;;;;2.50;1.58;;;;;;;-2.33;66.25;96176.56;5094139;28;20036;-77
2021/04/06 02:16:00;;;;;;;2.10;1.60;;;;;;;-2.33;65.98;96186.81;5093513;28;20048;-77
2021/04/06 02:18:29;;;;;;;1.92;1.60;;;;;;;-2.34;66.02;96186.97;5082744;28;20044;-77
2021/04/06 02:20:57;;;;;;;2.70;1.70;;;;;;;-2.34;65.62;96176.69;5094226;28;20157;-77
2021/04/06 02:23:23;;;;;;;3.47;1.70;;;;;;;-2.34;65.79;96168.97;5093843;28;20032;-77
2021/04/06 02:25:52;;;;;;;4.28;1.70;;;;;;;-2.37;65.63;96179.53;5094115;28;20036;-77
2021/04/06 02:28:24;;;;;;;4.78;2.13;;;;;;;-2.36;65.87;96176.03;5093818;28;20028;-77
2021/04/06 02:30:57;;;;;;;5.80;1.73;;;;;;;-2.38;65.81;96177.94;5094107;28;20047;-77
2021/04/06 02:33:29;;;;;;;3.45;1.58;;;;;;;-2.41;65.57;96183.38;5075698;28;20039;-77
2021/04/06 02:36:08;;;;;;;4.95;1.80;;;;;;;-2.44;65.56;96179.28;5093708;28;20047;-77
2021/04/06 02:38:38;;;;;;;4.18;2.13;;;;;;;-2.48;65.89;96185.66;5093873;28;20032;-77
2021/04/06 02:41:11;;;;;;;2.33;1.48;;;;;;;-2.51;65.88;96185.97;5093703;28;20036;-77
2021/04/06 02:43:53;;;;;;;4.32;1.85;;;;;;;-2.54;65.31;96181.09;5093660;28;20047;-77
2021/04/06 02:46:24;;;;;;;2.92;1.90;;;;;;;-2.58;65.39;96178.03;5093508;28;20043;-77
2021/04/06 02:48:51;;;;;;;2.22;1.77;;;;;;;-2.59;65.79;96175.59;5094315;28;20407;-77
2021/04/06 02:51:18;;;;;;;2.85;2.00;;;;;;;-2.59;65.78;96175.59;5093618;28;20395;-76
2021/04/06 02:53:48;;;;;;;3.58;2.53;;;;;;;-2.62;65.80;96170.75;5093747;28;20043;-77
2021/04/06 02:56:32;;;;;;;2.38;2.17;;;;;;;-2.62;65.80;96186.16;5093380;28;20480;-77
2021/04/06 02:59:16;;;;;;;4.32;2.08;;;;;;;-2.63;65.85;96184.53;5074495;28;20040;-77
2021/04/06 03:01:43;;;;;;;4.18;2.05;;;;;;;-2.67;65.67;96182.25;5092638;28;20044;-76
2021/04/06 03:04:27;;;;;;;4.10;1.90;;;;;;;-2.68;65.94;96174.69;5093858;28;20028;-77
2021/04/06 03:06:57;;;;;;;3.08;2.10;;;;;;;-2.71;65.58;96174.97;5093407;28;20039;-77
2021/04/06 03:09:26;;;;;;;3.78;1.60;;;;;;;-2.73;65.63;96171.72;5075558;28;20044;-77
2021/04/06 03:11:55;;;;;;;3.58;2.10;;;;;;;-2.75;65.50;96176.19;5092446;28;20048;-76
2021/04/06 03:14:23;;;;;;;5.32;2.20;;;;;;;-2.80;65.53;96163.78;5093656;28;20412;-76
2021/04/06 03:16:51;;;;;;;8.95;2.15;;;;;;;-2.83;65.82;96160.69;5093126;28;20032;-77
2021/04/06 03:19:17;;;;;;;4.07;2.00;;;;;;;-2.84;65.65;96164.22;5092300;28;20060;-76
2021/04/06 03:21:46;;;;;;;4.95;2.42;;;;;;;-2.89;65.71;96156.97;5092921;28;20111;-77
2021/04/06 03:24:12;;;;;;;3.30;2.00;;;;;;;-2.91;65.34;96163.97;5093031;28;20051;-76
2021/04/06 03:26:38;;;;;;;4.10;1.95;;;;;;;-2.93;65.63;96151.28;5093479;28;20032;-76
2021/04/06 03:29:05;;;;;;;5.78;2.65;;;;;;;-2.93;65.49;96158.97;5093426;28;20032;-77
2021/04/06 03:31:33;;;;;;;3.90;2.17;;;;;;;-2.93;65.74;96155.63;5093126;28;20036;-77
2021/04/06 03:34:01;;;;;;;3.95;1.88;;;;;;;-2.93;65.32;96158.19;5093066;28;20055;-77
2021/04/06 03:36:29;;;;;;;4.13;2.40;;;;;;;-2.95;65.69;96158.31;5075223;28;20035;-77
2021/04/06 03:39:01;;;;;;;4.40;2.67;;;;;;;-3.00;65.52;96144.28;5093003;28;20499;-76
2021/04/06 03:41:30;;;;;;;4.63;3.08;;;;;;;-3.09;65.79;96156.19;5093003;28;20042;-77
2021/04/06 03:44:06;;;;;;;5.80;2.65;;;;;;;-3.18;65.70;96152.72;5091697;28;20499;-76
2021/04/06 03:46:33;;;;;;;3.92;2.45;;;;;;;-3.20;65.72;96157.19;5093116;28;20377;-76
2021/04/06 03:49:26;;;;;;;4.85;2.20;;;;;;;-3.24;65.96;96155.84;5095295;28;20032;-76
2021/04/06 03:52:06;;;;;;;4.75;2.70;;;;;;;-3.31;65.74;96149.66;5097301;28;20385;-77
2021/04/06 03:54:42;;;;;;;4.55;2.40;;;;;;;-3.39;65.99;96167.50;5082755;28;20024;-76
2021/04/06 03:57:30;;;;;;;3.45;2.28;;;;;;;-3.43;66.98;96161.03;5096765;28;20047;-76
2021/04/06 03:59:57;;;;;;;5.07;2.33;;;;;;;-3.40;66.06;96160.72;5089729;28;20028;-76
2021/04/06 04:02:24;;;;;;;3.80;2.50;;;;;;;-3.41;66.23;96152.22;5096516;28;20098;-76
2021/04/06 04:04:51;;;;;;;5.60;2.40;;;;;;;-3.45;66.24;96155.22;5096847;28;20040;-76
2021/04/06 04:07:18;;;;;;;5.53;2.58;;;;;;;-3.50;66.32;96147.94;5096832;28;20043;-78
2021/04/06 04:09:45;;;;;;;4.30;2.33;;;;;;;-3.46;66.51;96141.59;5061558;28;20040;-77
2021/04/06 04:12:11;;;;;;;4.72;2.60;;;;;;;-3.46;66.66;96144.16;5096250;28;20043;-76
2021/04/06 04:14:38;;;;;;;4.82;2.60;;;;;;;-3.44;66.54;96138.88;5078751;28;20043;-76
2021/04/06 04:17:04;;;;;;;4.53;2.72;;;;;;;-3.43;66.40;96140.50;5096770;28;20040;-76
2021/04/06 04:19:30;;;;;;;5.95;2.70;;;;;;;-3.42;66.75;96140.38;5096497;28;20051;-76
2021/04/06 04:21:57;;;;;;;3.20;2.15;;;;;;;-3.44;66.91;96138.88;5078185;28;20055;-76
2021/04/06 04:24:23;;;;;;;4.85;2.70;;;;;;;-3.42;66.60;96140.38;5078259;28;20044;-76
2021/04/06 04:26:49;;;;;;;6.97;3.05;;;;;;;-3.45;66.39;96142.41;5096280;28;20464;-76
2021/04/06 04:29:16;;;;;;;4.00;2.55;;;;;;;-3.48;67.06;96136.59;5096171;28;20032;-76
2021/04/06 04:31:47;;;;;;;3.60;2.60;;;;;;;-3.45;66.93;96132.94;5077596;28;20069;-76
2021/04/06 04:34:13;;;;;;;5.50;2.63;;;;;;;-3.41;66.89;96130.94;5096357;28;20040;-76
2021/04/06 04:36:39;;;;;;;4.93;2.35;;;;;;;-3.36;66.93;96131.31;5077958;28;20395;-76
2021/04/06 04:39:06;;;;;;;4.07;2.20;;;;;;;-3.29;67.08;96145.19;5095055;28;20468;-76
2021/04/06 04:41:33;;;;;;;4.45;2.10;;;;;;;-3.27;67.05;96136.41;5095621;28;20131;-76
2021/04/06 04:43:59;;;;;;;8.35;2.58;;;;;;;-3.28;66.82;96131.41;5096057;28;20048;-76
2021/04/06 04:46:28;;;;;;;4.47;2.22;;;;;;;-3.29;66.76;96132.38;5096146;28;20040;-77
2021/04/06 04:48:56;;;;;;;3.80;2.70;;;;;;;-3.32;67.13;96138.59;5095911;28;20031;-76
2021/04/06 04:51:22;;;;;;;5.15;1.98;;;;;;;-3.30;67.33;96136.72;5077536;28;20051;-77
2021/04/06 04:53:48;;;;;;;4.97;2.85;;;;;;;-3.24;67.19;96143.03;5096489;28;20040;-76
2021/04/06 04:56:15;;;;;;;4.70;2.67;;;;;;;-3.21;67.08;96140.19;5094769;28;20396;-76
2021/04/06 04:58:41;;;;;;;5.32;2.35;;;;;;;-3.12;67.13;96146.22;5094856;28;20055;-76
2021/04/06 05:01:07;;;;;;;2.45;2.20;;;;;;;-3.06;67.34;96143.91;5093617;28;20378;-76
2021/04/06 05:03:33;;;;;;;7.47;2.85;;;;;;;-2.97;67.76;96149.94;5095495;28;20047;-77
2021/04/06 05:06:00;;;;;;;3.38;2.97;;;;;;;-2.91;67.42;96143.47;5095281;28;20476;-76
2021/04/06 05:08:26;;;;;;;4.68;2.40;;;;;;;-2.90;67.55;96145.06;5077829;28;20035;-76
2021/04/06 05:10:52;;;;;;;4.45;2.70;;;;;;;-2.86;67.69;96149.78;5077756;28;20058;-76
2021/04/06 05:13:18;;;;;;;7.07;2.80;;;;;;;-2.78;67.62;96145.69;5095455;28;20490;-76
2021/04/06 05:15:45;;;;;;;2.83;2.22;;;;;;;-2.72;67.70;96147.69;5095185;28;20043;-76
2021/04/06 05:18:11;;;;;;;7.68;2.50;;;;;;;-2.64;67.34;96157.25;5095171;28;20419;-76
2021/04/06 05:20:37;;;;;;;5.22;2.50;;;;;;;-2.57;67.43;96163.44;5094789;28;20056;-76
2021/04/06 05:23:03;;;;;;;4.25;2.40;;;;;;;-2.52;67.38;96149.22;5095268;28;20059;-76
2021/04/06 05:25:29;;;;;;;5.32;2.88;;;;;;;-2.44;67.35;96153.63;5076999;28;20036;-76
2021/04/06 05:27:56;;;;;;;5.53;3.00;;;;;;;-2.43;67.61;96147.53;5095016;28;20043;-76
2021/04/06 05:30:22;;;;;;;4.18;2.72;;;;;;;-2.44;67.10;96153.63;5095063;28;20069;-76
2021/04/06 05:32:48;;;;;;;5.68;2.90;;;;;;;-2.41;67.53;96155.91;5076695;28;20443;-77
2021/04/06 05:35:14;;;;;;;5.20;2.67;;;;;;;-2.38;67.63;96158.19;5094711;28;20047;-76
2021/04/06 05:37:41;;;;;;;6.78;2.90;;;;;;;-2.36;67.41;96161.41;5076887;28;20035;-76
2021/04/06 05:40:07;;;;;;;5.72;3.00;;;;;;;-2.33;67.51;96162.88;5094629;28;20039;-76
2021/04/06 05:42:33;;;;;;;5.85;2.58;;;;;;;-2.32;67.57;96160.16;5076785;28;20028;-76
2021/04/06 05:45:00;;;;;;;7.22;2.63;;;;;;;-2.29;67.25;96154.75;5095096;28;20055;-76
2021/04/06 05:47:34;;;;;;;9.02;3.13;;;;;;;-2.27;67.29;96155.44;5094474;28;20028;-76
2021/04/06 05:50:05;;;;;;;4.97;3.42;;;;;;;-2.29;67.51;96157.34;5095469;28;20032;-76
2021/04/06 05:52:33;;;;;;;6.68;3.17;;;;;;;-2.25;67.49;96157.84;5094513;28;20472;-76
2021/04/06 05:55:01;;;;;;;7.90;3.55;;;;;;;-2.19;67.51;96151.31;5094470;28;20046;-76
2021/04/06 05:57:28;;;;;;;6.97;3.40;;;;;;;-2.14;67.69;96147.38;5076172;28;20040;-76
2021/04/06 05:59:54;;;;;;;7.50;3.58;;;;;;;-2.07;67.52;96147.59;5094535;28;20047;-76
2021/04/06 06:02:20;;;;;;;5.15;2.95;;;;;;;-1.98;67.81;96144.13;5094093;28;20043;-76
2021/04/06 06:04:47;;;;;;;5.97;3.30;;;;;;;-1.87;67.84;96148.22;5093409;28;20052;-76
2021/04/06 06:07:13;;;;;;;6.38;3.00;;;;;;;-1.73;67.51;96154.63;5094286;28;20036;-76
2021/04/06 06:09:40;;;;;;;5.47;3.05;;;;;;;-1.60;67.55;96154.25;5094244;28;20039;-76
2021/04/06 06:12:07;;;;;;;6.07;3.17;;;;;;;-1.49;67.25;96156.56;5075883;28;20499;-76
2021/04/06 06:14:36;;;;;;;5.10;3.10;;;;;;;-1.40;67.24;96162.59;5094006;28;20051;-76
2021/04/06 06:17:26;;;;;;;5.90;3.00;;;;;;;-1.36;67.10;96161.34;5093336;28;20036;-76
2021/04/06 06:19:54;;;;;;;7.60;3.00;;;;;;;-1.38;66.72;96160.69;5094328;28;20055;-76
2021/04/06 06:22:23;;;;;;;7.80;3.20;;;;;;;-1.35;67.02;96162.94;5093900;28;20036;-76
2021/04/06 06:24:51;;;;;;;8.27;3.78;;;;;;;-1.34;67.12;96159.44;5094055;28;20066;-77
2021/04/06 06:30:17;;;;;;;9.27;3.05;;;;;;;-1.33;67.16;96159.25;5094199;28;20028;-76
2021/04/06 06:32:43;;;;;;;7.30;3.65;;;;;;;-1.32;66.84;96160.88;5094163;28;20047;-76
2021/04/06 06:35:10;;;;;;;6.03;2.70;;;;;;;-1.32;66.71;96155.75;5075453;28;20048;-76
2021/04/06 06:37:36;;;;;;;5.95;2.88;;;;;;;-1.31;66.69;96148.81;5093533;28;20032;-77
2021/04/06 06:40:06;;;;;;;4.40;2.40;;;;;;;-1.26;66.77;96157.72;5093482;28;20028;-77
2021/04/06 06:42:36;;;;;;;4.07;2.45;;;;;;;-1.20;67.02;96160.63;5094116;28;20036;-76
2021/04/06 06:45:05;;;;;;;5.38;2.55;;;;;;;-1.15;67.30;96156.66;5093342;28;20040;-76
2021/04/06 06:47:32;;;;;;;3.90;2.60;;;;;;;-1.04;67.24;96153.81;5093384;28;20039;-76
2021/04/06 06:50:09;;;;;;;5.38;2.55;;;;;;;-0.90;66.92;96156.78;5093529;28;20403;-76
2021/04/06 06:52:36;;;;;;;7.72;4.38;;;;;;;-0.80;66.77;96154.09;5092779;28;20048;-77
2021/04/06 06:55:16;;;;;;;6.65;2.30;;;;;;;-0.64;65.91;96147.25;5092506;28;20420;-77
2021/04/06 06:57:43;;;;;;;3.50;2.42;;;;;;;-0.54;66.32;96143.75;5091984;28;20067;-77
2021/04/06 07:00:12;;;;;;;5.43;2.63;;;;;;;-0.43;66.41;96148.59;5075628;28;20036;-77
2021/04/06 07:02:39;;;;;;;7.60;2.60;;;;;;;-0.34;66.37;96139.94;5093364;28;20032;-78
2021/04/06 07:05:12;;;;;;;7.00;2.30;;;;;;;-0.27;65.66;96135.78;5093475;28;20043;-77
2021/04/06 07:07:53;;;;;;;6.55;2.70;;;;;;;-0.21;65.53;96139.47;5093294;28;20043;-77
2021/04/06 07:10:23;;;;;;;5.82;2.22;;;;;;;0.13;65.97;96141.97;5093347;28;20039;-77
2021/04/06 07:12:58;;;;;;;6.53;2.30;;;;;;;0.92;64.07;96138.84;5075245;28;20118;-78
2021/04/06 07:15:26;;;;;;;5.75;2.17;;;;;;;2.00;64.93;96140.81;5079262;28;20036;-80
2021/04/06 07:17:59;;;;;;;6.55;2.60;;;;;;;2.96;62.83;96125.59;5093158;28;20491;-80
2021/04/06 07:20:26;;;;;;;5.82;2.20;;;;;;;3.46;62.88;96118.91;5072171;28;20053;-80
2021/04/06 07:22:57;;;;;;;3.88;2.28;;;;;;;3.60;61.22;96109.50;5073776;28;20044;-80
2021/04/06 07:25:24;;;;;;;5.82;2.60;;;;;;;3.87;61.15;96105.41;5076845;28;20063;-79
2021/04/06 07:27:51;;;;;;;4.60;1.95;;;;;;;3.99;60.70;96106.53;5076168;28;20048;-79
2021/04/06 07:30:18;;;;;;;2.70;1.67;;;;;;;4.47;60.82;96106.75;5075081;28;20048;-79
2021/04/06 07:32:46;;;;;;;4.78;2.08;;;;;;;5.13;60.13;96103.00;5075956;28;20480;-79
2021/04/06 07:35:13;;;;;;;6.65;2.20;;;;;;;5.52;58.99;96083.34;5076901;28;20382;-78
2021/04/06 07:37:41;;;;;;;6.13;2.70;;;;;;;5.80;58.26;96072.06;5076630;28;20048;-79
2021/04/06 07:40:10;;;;;;;4.13;2.08;;;;;;;5.82;55.54;96063.06;5076914;28;20040;-80
2021/04/06 07:42:39;;;;;;;5.45;2.47;;;;;;;5.82;56.12;96055.25;5075357;28;20051;-81
2021/04/06 07:45:30;;;;;;;4.68;2.33;;;;;;;5.67;52.20;96033.81;5076765;28;20048;-79
2021/04/06 07:47:57;;;;;;;6.05;2.17;;;;;;;5.49;56.38;96066.34;5070239;28;20039;-78
2021/04/06 07:50:41;;;;;;;4.30;2.10;;;;;;;4.93;52.61;96034.50;5076625;28;20413;-78
2021/04/06 07:53:20;;;;;;;6.22;2.30;;;;;;;4.40;53.51;96045.38;5076936;28;20047;-78
2021/04/06 07:55:47;;;;;;;6.22;2.35;;;;;;;4.01;56.59;96080.38;5076998;28;20040;-78
2021/04/06 07:58:45;;;;;;;4.00;2.17;;;;;;;3.53;55.25;96067.94;5076542;28;20044;-78
2021/04/06 08:01:35;;;;;;;5.88;2.58;;;;;;;3.15;56.56;96080.22;5065476;28;20469;-78
2021/04/06 08:04:04;;;;;;;5.05;1.98;;;;;;;2.90;57.86;96090.06;5067296;28;20045;-78
2021/04/06 08:06:43;;;;;;;6.57;2.17;;;;;;;2.71;57.09;96089.63;5076550;28;20037;-79
2021/04/06 08:09:55;;;;;;;4.63;1.77;;;;;;;2.59;56.91;96078.88;5064831;28;20479;-78
2021/04/06 08:12:33;;;;;;;6.07;2.78;;;;;;;2.61;58.03;96076.13;4994616;28;20041;-79
2021/04/06 08:15:15;;;;;;;5.00;2.95;;;;;;;2.51;56.99;96078.16;5069241;28;20051;-78
2021/04/06 08:17:43;;;;;;;4.30;2.72;;;;;;;2.41;58.15;96094.72;5064091;28;20128;-79
2021/04/06 08:20:20;;;;;;;4.60;2.42;;;;;;;2.38;57.14;96073.59;5091648;28;20052;-79
2021/04/06 08:23:08;;;;;;;6.72;2.95;;;;;;;2.40;58.22;96092.34;5096756;28;20048;-79
2021/04/06 08:25:34;;;;;;;5.55;2.53;;;;;;;2.32;57.74;96084.63;5084258;28;20501;-79
2021/04/06 08:28:20;;;;;;;5.50;2.00;;;;;;;2.24;58.10;96090.66;5095301;28;20043;-78
2021/04/06 08:30:46;;;;;;;8.90;2.65;;;;;;;2.16;58.28;96088.97;5096145;28;20392;-79
2021/04/06 08:33:12;;;;;;;6.35;3.10;;;;;;;2.14;58.49;96093.53;5096209;28;20036;-79
2021/04/06 08:38:20;;;;;;;10.15;2.80;;;;;;;2.03;58.10;96086.16;5095906;28;20399;-79
2021/04/06 08:40:57;;;;;;;4.75;2.28;;;;;;;1.98;58.44;96098.81;5096108;28;20043;-79
2021/04/06 08:43:30;;;;;;;2.83;2.00;;;;;;;1.96;58.17;96098.16;5084463;28;20039;-79
2021/04/06 08:46:24;;;;;;;4.28;2.45;;;;;;;1.93;59.02;96108.84;5095670;28;20055;-79
2021/04/06 08:48:53;;;;;;;5.00;2.33;;;;;;;1.86;58.63;96093.22;5094714;28;20107;-79
2021/04/06 08:51:39;;;;;;;5.43;2.50;;;;;;;1.83;59.18;96103.91;5095071;28;20300;-79
2021/04/06 08:54:11;;;;;;;5.57;2.70;;;;;;;1.75;58.79;96094.41;5095693;28;20047;-79
2021/04/06 08:56:42;;;;;;;4.72;2.50;;;;;;;1.72;58.66;96099.13;5095923;28;20457;-79
2021/04/06 08:59:33;;;;;;;4.88;3.05;;;;;;;1.74;59.06;96105.75;5095714;28;20036;-79
2021/04/06 09:02:11;;;;;;;3.55;2.72;;;;;;;1.74;58.22;96100.56;5084595;28;20028;-79
2021/04/06 09:04:47;;;;;;;6.80;2.58;;;;;;;1.73;58.42;96098.16;5094727;28;20423;-79
2021/04/06 09:07:17;;;;;;;7.63;3.70;;;;;;;1.70;58.03;96091.56;5095776;28;20046;-79
2021/04/06 09:09:44;;;;;;;4.63;2.08;;;;;;;1.69;58.53;96102.84;5095514;28;20036;-79
2021/04/06 09:12:12;;;;;;;7.45;2.58;;;;;;;1.72;58.51;96105.13;5095179;28;20040;-78
2021/04/06 09:14:38;;;;;;;2.95;1.60;;;;;;;1.69;58.35;96105.44;5095746;28;20047;-78
2021/04/06 09:17:05;;;;;;;4.65;1.70;;;;;;;1.71;58.27;96110.44;5095099;28;20028;-78
2021/04/06 09:19:34;;;;;;;5.43;1.88;;;;;;;1.76;58.31;96106.34;5094641;28;20058;-79
2021/04/06 09:22:03;;;;;;;4.00;1.73;;;;;;;1.86;58.40;96105.34;5094476;28;20063;-79
2021/04/06 09:24:30;;;;;;;6.78;2.20;;;;;;;1.99;58.41;96108.16;5094146;28;20052;-78
2021/04/06 09:26:58;;;;;;;4.95;2.85;;;;;;;2.11;58.23;96105.97;5077056;28;20040;-79
2021/04/06 09:29:30;;;;;;;7.15;4.10;;;;;;;2.21;58.05;96107.34;5095079;28;20040;-78
2021/04/06 09:32:08;;;;;;;9.13;2.28;;;;;;;2.24;57.75;96108.78;5095032;28;20035;-78
2021/04/06 09:34:43;;;;;;;4.30;2.00;;;;;;;2.24;57.91;96104.41;5094782;28;20487;-78
2021/04/06 09:37:15;;;;;;;3.20;2.13;;;;;;;2.25;58.00;96102.66;5095149;28;20047;-78
2021/04/06 09:39:47;;;;;;;3.85;1.75;;;;;;;2.29;57.57;96092.72;5095395;28;20028;-78
2021/04/06 09:42:13;;;;;;;5.47;2.03;;;;;;;2.32;57.72;96097.56;5094917;28;20036;-78
2021/04/06 09:44:41;;;;;;;2.10;1.40;;;;;;;2.28;57.38;96084.16;5094822;28;20036;-78
2021/04/06 09:47:13;;;;;;;4.57;1.58;;;;;;;2.20;56.60;96087.63;5093740;28;20048;-78
2021/04/06 09:49:42;;;;;;;3.08;1.60;;;;;;;2.18;56.79;96088.78;5093752;28;20051;-78
2021/04/06 09:52:18;;;;;;;2.63;1.10;;;;;;;2.17;55.58;96077.63;5094641;28;20039;-78
2021/04/06 09:54:55;;;;;;;3.30;1.13;;;;;;;2.16;55.79;96070.88;5094666;28;20035;-78
2021/04/06 09:57:26;;;;;;;3.67;1.33;;;;;;;2.23;56.60;96082.13;5094649;28;20028;-79
2021/04/06 09:59:55;;;;;;;2.95;1.20;;;;;;;2.42;57.19;96078.22;5093704;28;20092;-79
2021/04/06 10:02:24;;;;;;;3.70;1.60;;;;;;;2.58;57.05;96072.13;5094645;28;20036;-79
2021/04/06 10:04:52;;;;;;;1.58;1.20;;;;;;;2.78;56.90;96069.00;5093335;28;20044;-79
2021/04/06 10:07:27;;;;;;;2.13;1.20;;;;;;;2.75;56.19;96052.03;5094267;28;20048;-79
2021/04/06 10:09:59;;;;;;;2.67;2.25;;;;;;;2.68;56.00;96058.88;5094324;28;20050;-79
2021/04/06 10:12:28;;;;;;;2.78;1.20;;;;;;;2.59;55.95;96053.00;5094351;28;20048;-79
2021/04/06 10:14:54;;;;;;;3.53;2.53;;;;;;;2.54;56.14;96063.09;5093963;28;20035;-79
2021/04/06 10:17:23;;;;;;;1.70;1.10;;;;;;;2.69;56.39;96054.50;5093740;28;20040;-79
2021/04/06 10:19:58;;;;;;;1.35;0.90;;;;;;;3.01;55.11;96045.59;5094081;28;20503;-79
2021/04/06 10:22:26;;;;;;;2.20;1.13;;;;;;;3.16;55.62;96037.81;5093860;28;20040;-79
2021/04/06 10:25:00;;;;;;;2.05;1.40;;;;;;;3.22;54.78;96032.69;5094217;28;20404;-79
2021/04/06 10:27:29;;;;;;;3.15;2.08;;;;;;;3.23;55.04;96029.13;5094095;28;20028;-79
2021/04/06 10:30:00;;;;;;;3.78;2.30;;;;;;;3.10;54.66;96039.31;5093930;28;20040;-79
2021/04/06 10:32:46;;;;;;;2.17;1.58;;;;;;;3.11;54.35;96025.41;5093893;28;20475;-80
2021/04/06 10:35:14;;;;;;;3.17;1.42;;;;;;;3.14;55.19;96022.44;5093836;28;20054;-79
2021/04/06 10:37:43;;;;;;;1.20;1.00;;;;;;;3.30;54.93;96024.03;5093578;28;20027;-80
2021/04/06 10:40:36;;;;;;;3.05;1.40;;;;;;;3.90;52.54;96000.47;5093872;28;20035;-80
2021/04/06 10:43:13;;;;;;;2.20;1.65;;;;;;;4.30;54.88;96024.94;5075576;28;20044;-80
2021/04/06 10:45:43;;;;;;;3.97;1.77;;;;;;;4.45;53.42;96012.69;5093488;28;20035;-81
2021/04/06 10:48:17;;;;;;;4.78;1.60;;;;;;;4.50;53.69;96008.72;5093552;28;20379;-81
2021/04/06 10:50:47;;;;;;;1.55;1.42;;;;;;;4.33;52.75;96009.00;5093557;28;20043;-81
2021/04/06 10:53:30;;;;;;;2.75;1.30;;;;;;;4.05;51.52;95994.22;5093741;28;20040;-81
2021/04/06 10:56:07;;;;;;;1.60;1.33;;;;;;;4.09;52.27;96004.22;5092338;28;20048;-80
2021/04/06 10:58:43;;;;;;;2.58;1.85;;;;;;;4.10;50.53;95978.09;5092888;28;20036;-81
2021/04/06 11:01:12;;;;;;;3.97;1.50;;;;;;;4.07;52.76;95992.25;5092725;28;20052;-81
2021/04/06 11:03:47;;;;;;;2.28;1.30;;;;;;;4.00;51.03;95983.59;5093453;28;20042;-81
2021/04/06 11:06:15;;;;;;;2.58;1.40;;;;;;;3.87;51.78;95991.28;5092696;28;20044;-81
2021/04/06 11:08:49;;;;;;;2.70;1.42;;;;;;;3.76;51.32;95983.97;5074936;28;20036;-81
2021/04/06 11:11:21;;;;;;;3.88;2.00;;;;;;;3.56;52.18;95989.00;5093495;28;20032;-80
2021/04/06 11:13:49;;;;;;;3.83;1.92;;;;;;;3.39;52.33;95989.22;5092997;28;20047;-80
2021/04/06 11:16:16;;;;;;;5.18;2.92;;;;;;;3.32;52.65;95990.94;5093338;28;20499;-80
2021/04/06 11:18:43;;;;;;;4.25;1.80;;;;;;;3.18;52.80;95984.00;5092831;28;20036;-80
2021/04/06 11:21:10;;;;;;;2.30;1.83;;;;;;;3.24;53.23;95988.47;5093465;28;20476;-80
2021/04/06 11:23:36;;;;;;;2.80;1.75;;;;;;;3.62;53.51;95981.28;5093696;28;20046;-80
2021/04/06 11:26:03;;;;;;;4.90;2.05;;;;;;;4.10;53.31;95974.69;5092994;28;20392;-80
2021/04/06 11:28:29;;;;;;;5.15;2.20;;;;;;;4.20;51.93;95965.59;5093447;28;20040;-80
2021/04/06 11:30:55;;;;;;;3.65;1.80;;;;;;;4.22;51.88;95961.00;5092008;28;20070;-80
2021/04/06 11:33:22;;;;;;;3.85;1.67;;;;;;;4.24;51.87;95960.78;5075151;28;20048;-80
2021/04/06 11:35:48;;;;;;;5.30;1.60;;;;;;;4.21;51.49;95941.22;5093101;28;20036;-80
2021/04/06 11:38:16;;;;;;;2.53;1.55;;;;;;;4.10;50.99;95940.97;5092286;28;20419;-80
2021/04/06 11:40:43;;;;;;;4.25;1.70;;;;;;;4.06;51.20;95949.09;5082689;28;20036;-79
2021/04/06 11:43:09;;;;;;;2.92;1.85;;;;;;;4.10;51.09;95943.56;5092766;28;20052;-80
2021/04/06 11:45:35;;;;;;;2.42;1.50;;;;;;;4.12;51.02;95936.38;5093222;28;20040;-79
2021/04/06 11:48:03;;;;;;;3.22;1.80;;;;;;;4.07;51.00;95934.34;5092744;28;20476;-79
2021/04/06 11:50:31;;;;;;;2.80;1.20;;;;;;;4.01;50.67;95928.13;5092109;28;20051;-79
2021/04/06 11:52:59;;;;;;;3.70;1.73;;;;;;;3.94;50.48;95913.50;5092602;28;20044;-79
2021/04/06 11:55:27;;;;;;;3.63;1.58;;;;;;;3.97;50.80;95923.47;5092845;28;20036;-79
2021/04/06 11:57:54;;;;;;;3.75;1.33;;;;;;;4.18;50.75;95927.81;5092085;28;20384;-79
2021/04/06 12:00:23;;;;;;;5.85;1.65;;;;;;;4.09;49.79;95905.63;5092019;28;20052;-79
2021/04/06 12:02:51;;;;;;;2.85;1.55;;;;;;;4.21;49.81;95910.06;5091906;28;20070;-79